Time;durP1;ratioP1;P1;durP2;ratioP2;P2;SDS_P1;SDS_P2;PMS_P1;PMS_P2;Temp;Humidity;BMP_temperature;BMP_pressure;BME280_temperature;BME280_humidity;BME280_pressure;Samples;Min_cycle;Max_cycle;Signal;HPM_P1;HPM_P2
2023/07/18 00:01:46;;;;;;;15.38;9.32;;;13.60;99.90;;;;;;5016837;28;20112;-81
2023/07/18 00:04:11;;;;;;;13.15;9.80;;;13.60;99.90;;;;;;5008227;28;20483;-80
2023/07/18 00:06:41;;;;;;;13.50;9.55;;;13.60;99.90;;;;;;4991059;28;20034;-80
2023/07/18 00:09:07;;;;;;;13.25;8.80;;;13.60;99.90;;;;;;4991192;28;20124;-80
2023/07/18 00:11:33;;;;;;;15.00;10.32;;;13.70;99.90;;;;;;5007548;28;20209;-80
2023/07/18 00:13:58;;;;;;;12.70;9.43;;;13.50;99.90;;;;;;5007751;28;20034;-80
2023/07/18 00:16:24;;;;;;;16.02;10.18;;;13.70;99.90;;;;;;5008951;28;20092;-80
2023/07/18 00:18:50;;;;;;;11.10;9.05;;;13.50;99.90;;;;;;5006768;28;20050;-80
2023/07/18 00:21:16;;;;;;;17.52;10.38;;;13.50;99.90;;;;;;5016347;28;20495;-81
2023/07/18 00:23:42;;;;;;;11.75;8.40;;;13.40;99.90;;;;;;5013662;28;20045;-80
2023/07/18 00:26:08;;;;;;;11.52;10.25;;;13.50;99.90;;;;;;5018210;28;20411;-80
2023/07/18 00:28:34;;;;;;;11.10;8.45;;;13.40;99.90;;;;;;5007196;28;20556;-80
2023/07/18 00:31:01;;;;;;;19.98;9.13;;;13.40;99.90;;;;;;5013762;28;20133;-80
2023/07/18 00:33:27;;;;;;;13.45;9.40;;;13.60;99.90;;;;;;5006603;28;20046;-81
2023/07/18 00:35:53;;;;;;;13.48;10.32;;;13.30;99.90;;;;;;4991059;28;20068;-80
2023/07/18 00:38:20;;;;;;;14.40;9.02;;;13.50;99.90;;;;;;5003859;28;20048;-79
2023/07/18 00:40:47;;;;;;;15.98;10.73;;;13.30;99.90;;;;;;5007732;28;20046;-80
2023/07/18 00:43:14;;;;;;;14.38;9.32;;;13.40;99.90;;;;;;5003824;28;20052;-80
2023/07/18 00:45:45;;;;;;;13.43;10.98;;;13.20;99.90;;;;;;5006829;28;20049;-80
2023/07/18 00:48:11;;;;;;;17.85;9.80;;;13.40;99.90;;;;;;5011098;28;20487;-80
2023/07/18 00:50:37;;;;;;;15.05;11.82;;;13.20;99.90;;;;;;5000307;28;20042;-80
2023/07/18 00:53:03;;;;;;;16.42;10.57;;;13.20;99.90;;;;;;4990364;28;20078;-80
2023/07/18 00:55:29;;;;;;;17.20;10.20;;;13.10;99.90;;;;;;4990571;28;20041;-80
2023/07/18 00:57:57;;;;;;;13.43;12.02;;;13.10;99.90;;;;;;5010300;28;20056;-80
2023/07/18 01:00:23;;;;;;;13.65;9.98;;;13.10;99.90;;;;;;5015845;28;20046;-80
2023/07/18 01:02:49;;;;;;;16.08;8.60;;;12.90;99.90;;;;;;4990249;28;20048;-80
2023/07/18 01:05:17;;;;;;;17.85;11.40;;;13.20;99.90;;;;;;5008438;28;20042;-80
2023/07/18 01:07:44;;;;;;;15.68;10.27;;;13.20;99.90;;;;;;4990741;28;20052;-80
2023/07/18 01:10:17;;;;;;;14.32;9.45;;;13.20;99.90;;;;;;5006823;28;20034;-80
2023/07/18 01:12:43;;;;;;;15.35;10.50;;;13.20;99.90;;;;;;5003538;28;20042;-80
2023/07/18 01:15:12;;;;;;;15.52;10.00;;;13.20;99.90;;;;;;5007324;28;20041;-79
2023/07/18 01:17:41;;;;;;;17.83;11.45;;;13.10;99.90;;;;;;4990018;28;20057;-80
2023/07/18 01:20:11;;;;;;;15.25;9.10;;;13.20;99.90;;;;;;5006761;28;20496;-79
2023/07/18 01:22:37;;;;;;;13.35;9.73;;;13.20;99.90;;;;;;4990030;28;20038;-80
2023/07/18 01:25:03;;;;;;;16.02;10.32;;;13.10;99.90;;;;;;5010956;28;20037;-79
2023/07/18 01:27:30;;;;;;;17.27;10.48;;;13.10;99.90;;;;;;5011489;28;20404;-80
2023/07/18 01:29:55;;;;;;;15.70;11.05;;;13.30;99.90;;;;;;5010989;28;20041;-80
2023/07/18 01:32:21;;;;;;;15.35;12.20;;;13.00;99.90;;;;;;5023473;28;20092;-80
2023/07/18 01:34:47;;;;;;;17.10;11.55;;;13.00;99.90;;;;;;5006659;28;20052;-80
2023/07/18 01:37:15;;;;;;;17.30;10.70;;;13.00;99.90;;;;;;5010384;28;20100;-80
2023/07/18 01:39:41;;;;;;;19.95;14.20;;;13.00;99.90;;;;;;5010142;28;20038;-79
2023/07/18 01:42:06;;;;;;;17.17;11.23;;;13.00;99.90;;;;;;5010031;28;20041;-80
2023/07/18 01:44:33;;;;;;;12.65;10.40;;;12.90;99.90;;;;;;5018031;28;20034;-79
2023/07/18 01:46:59;;;;;;;14.02;9.57;;;12.90;99.90;;;;;;4993722;28;20038;-79
2023/07/18 01:49:25;;;;;;;16.23;12.75;;;12.90;99.90;;;;;;5010006;28;20406;-80
2023/07/18 01:51:50;;;;;;;18.25;10.55;;;12.90;99.90;;;;;;5010016;28;20108;-80
2023/07/18 01:54:16;;;;;;;15.55;11.48;;;12.90;99.90;;;;;;4993420;28;20038;-80
2023/07/18 01:56:41;;;;;;;17.08;11.57;;;12.90;99.90;;;;;;5010196;28;20042;-80
2023/07/18 01:59:07;;;;;;;13.65;10.02;;;13.30;99.90;;;;;;5009180;28;20037;-80
2023/07/18 02:01:33;;;;;;;17.35;10.68;;;12.90;99.90;;;;;;5013161;28;20192;-80
2023/07/18 02:03:59;;;;;;;20.58;12.55;;;12.90;99.90;;;;;;5010431;28;20499;-80
2023/07/18 02:06:25;;;;;;;20.67;12.70;;;12.80;99.90;;;;;;4993236;28;20042;-80
2023/07/18 02:08:51;;;;;;;16.88;12.70;;;12.80;99.90;;;;;;5009540;28;20044;-80
2023/07/18 02:11:17;;;;;;;15.05;12.88;;;12.80;99.90;;;;;;5009760;28;20400;-80
2023/07/18 02:13:43;;;;;;;16.23;11.23;;;12.80;99.90;;;;;;5009066;28;20046;-80
2023/07/18 02:16:09;;;;;;;19.13;13.95;;;12.80;99.90;;;;;;5022941;28;20495;-80
2023/07/18 02:18:35;;;;;;;18.13;13.10;;;12.80;99.90;;;;;;5009258;28;20046;-80
2023/07/18 02:21:01;;;;;;;15.50;12.30;;;13.30;99.90;;;;;;5009224;28;20234;-80
2023/07/18 02:23:26;;;;;;;15.07;12.73;;;12.90;99.90;;;;;;4992516;28;20092;-80
2023/07/18 02:25:53;;;;;;;16.48;11.63;;;12.90;99.90;;;;;;5010431;28;20081;-80
2023/07/18 02:28:18;;;;;;;21.73;14.18;;;12.90;99.90;;;;;;5008685;28;20092;-80
2023/07/18 02:30:44;;;;;;;22.77;19.90;;;13.00;99.90;;;;;;5009041;28;20558;-80
2023/07/18 02:33:10;;;;;;;17.23;12.15;;;13.00;99.90;;;;;;5023072;28;20026;-80
2023/07/18 02:35:36;;;;;;;16.80;12.75;;;13.00;99.90;;;;;;4996953;28;20104;-80
2023/07/18 02:38:02;;;;;;;18.27;16.17;;;13.10;99.90;;;;;;5008979;28;20030;-79
2023/07/18 02:40:27;;;;;;;25.08;22.05;;;13.10;99.90;;;;;;4992724;28;20470;-80
2023/07/18 02:42:53;;;;;;;19.77;12.48;;;13.40;99.90;;;;;;5021249;28;20060;-79
2023/07/18 02:45:19;;;;;;;20.98;13.23;;;13.10;99.90;;;;;;4992446;28;20042;-80
2023/07/18 02:47:44;;;;;;;15.05;12.10;;;13.10;99.90;;;;;;5009623;28;20038;-79
2023/07/18 02:50:10;;;;;;;23.05;14.95;;;13.10;99.90;;;;;;5005324;28;20126;-80
2023/07/18 02:52:36;;;;;;;20.13;11.32;;;13.10;99.90;;;;;;5009506;28;20631;-80
2023/07/18 02:55:03;;;;;;;18.10;12.45;;;13.10;99.90;;;;;;4992874;28;20492;-80
2023/07/18 02:57:28;;;;;;;15.48;12.65;;;13.00;99.90;;;;;;4993389;28;20034;-80
2023/07/18 02:59:54;;;;;;;14.95;13.43;;;13.00;99.90;;;;;;4992412;28;20049;-80
2023/07/18 03:02:20;;;;;;;16.25;10.35;;;12.90;99.90;;;;;;5008184;28;20037;-80
2023/07/18 03:04:49;;;;;;;15.50;12.48;;;12.90;99.90;;;;;;5023097;28;20121;-80
2023/07/18 03:07:17;;;;;;;20.40;16.35;;;12.90;99.90;;;;;;5010223;28;20034;-80
2023/07/18 03:09:43;;;;;;;18.42;13.93;;;12.90;99.90;;;;;;5009573;28;20503;-80
2023/07/18 03:12:10;;;;;;;19.27;12.57;;;12.90;99.90;;;;;;5008807;28;20045;-81
2023/07/18 03:14:36;;;;;;;17.75;11.88;;;12.80;99.90;;;;;;4992005;28;20113;-80
2023/07/18 03:17:01;;;;;;;20.95;14.60;;;12.80;99.90;;;;;;5008072;28;20133;-80
2023/07/18 03:19:27;;;;;;;20.95;16.45;;;12.90;99.90;;;;;;5015636;28;20503;-79
2023/07/18 03:21:53;;;;;;;20.13;17.52;;;12.90;99.90;;;;;;5014344;28;20053;-80
2023/07/18 03:24:18;;;;;;;22.25;20.08;;;12.80;99.90;;;;;;5016814;28;20038;-80
2023/07/18 03:26:44;;;;;;;16.15;13.10;;;12.90;99.90;;;;;;5009275;28;20041;-80
2023/07/18 03:29:09;;;;;;;18.92;16.70;;;12.80;99.90;;;;;;4991765;28;20041;-81
2023/07/18 03:31:35;;;;;;;20.38;17.02;;;12.80;99.90;;;;;;4991896;28;20117;-80
2023/07/18 03:34:01;;;;;;;19.90;13.82;;;12.80;99.90;;;;;;5007925;28;20042;-80
2023/07/18 03:36:27;;;;;;;18.13;16.08;;;12.80;99.90;;;;;;5009394;28;20045;-80
2023/07/18 03:38:53;;;;;;;18.35;12.70;;;12.80;99.90;;;;;;5008390;28;20065;-80
2023/07/18 03:41:19;;;;;;;16.88;13.32;;;12.80;99.90;;;;;;5018912;28;20048;-80
2023/07/18 03:43:44;;;;;;;26.27;18.70;;;12.80;99.90;;;;;;4991282;28;20043;-80
2023/07/18 03:46:10;;;;;;;18.95;13.95;;;12.80;99.90;;;;;;5007655;28;20044;-80
2023/07/18 03:48:37;;;;;;;19.40;14.70;;;12.80;99.90;;;;;;4990426;28;20053;-80
2023/07/18 03:51:05;;;;;;;20.48;14.38;;;12.80;99.90;;;;;;5008891;28;20041;-80
2023/07/18 03:53:32;;;;;;;17.35;12.38;;;12.90;99.90;;;;;;5008226;28;20037;-80
2023/07/18 03:56:04;;;;;;;18.48;13.10;;;12.80;99.90;;;;;;5020130;28;20064;-80
2023/07/18 03:58:30;;;;;;;20.13;16.05;;;12.90;99.90;;;;;;5010193;28;20112;-80
2023/07/18 04:00:56;;;;;;;18.88;12.18;;;12.80;99.90;;;;;;4990984;28;20125;-79
2023/07/18 04:03:21;;;;;;;16.80;12.23;;;13.00;99.90;;;;;;5009701;28;20464;-80
2023/07/18 04:05:47;;;;;;;16.92;12.55;;;12.90;99.90;;;;;;5007449;28;20037;-80
2023/07/18 04:08:13;;;;;;;17.35;12.85;;;12.90;99.90;;;;;;5014944;28;20037;-80
2023/07/18 04:10:38;;;;;;;19.95;14.48;;;12.90;99.90;;;;;;5012696;28;20459;-80
2023/07/18 04:13:04;;;;;;;17.40;13.65;;;13.00;99.90;;;;;;5008230;28;20611;-80
2023/07/18 04:15:30;;;;;;;18.25;14.48;;;13.00;99.90;;;;;;5007200;28;20034;-80
2023/07/18 04:17:55;;;;;;;22.38;15.30;;;13.10;99.90;;;;;;5006850;28;20085;-80
2023/07/18 04:20:21;;;;;;;19.08;14.50;;;13.10;99.90;;;;;;5007410;28;20045;-80
2023/07/18 04:22:47;;;;;;;17.20;12.38;;;13.20;99.90;;;;;;5016806;28;20450;-81
2023/07/18 04:25:13;;;;;;;20.73;15.23;;;13.40;99.90;;;;;;5000218;28;20033;-80
2023/07/18 04:27:38;;;;;;;15.75;13.30;;;13.40;99.90;;;;;;5027178;28;20112;-80
2023/07/18 04:30:05;;;;;;;16.67;14.52;;;13.40;99.90;;;;;;5025322;28;20041;-81
2023/07/18 04:32:31;;;;;;;18.95;14.45;;;13.60;99.90;;;;;;5008810;28;20033;-81
2023/07/18 04:34:56;;;;;;;16.50;11.80;;;13.60;99.90;;;;;;5007460;28;20050;-80
2023/07/18 04:37:22;;;;;;;16.23;10.52;;;13.70;99.90;;;;;;5008601;28;20045;-81
2023/07/18 04:39:47;;;;;;;14.20;10.23;;;13.80;99.90;;;;;;4990761;28;20041;-81
2023/07/18 04:42:13;;;;;;;18.33;13.60;;;13.90;99.90;;;;;;5007564;28;20042;-81
2023/07/18 04:44:39;;;;;;;15.23;12.25;;;14.00;99.90;;;;;;5008446;28;20045;-81
2023/07/18 04:47:05;;;;;;;20.00;11.98;;;14.10;99.90;;;;;;5007076;28;20125;-81
2023/07/18 04:49:30;;;;;;;23.27;10.43;;;14.20;99.90;;;;;;4990945;28;20119;-81
2023/07/18 04:51:56;;;;;;;18.85;11.45;;;14.30;99.90;;;;;;5007018;28;20057;-81
2023/07/18 04:54:22;;;;;;;15.57;13.43;;;14.40;99.90;;;;;;5006788;28;20433;-81
2023/07/18 04:56:47;;;;;;;18.50;12.32;;;14.40;99.90;;;;;;5022116;28;20038;-81
2023/07/18 04:59:13;;;;;;;16.58;11.85;;;14.50;99.90;;;;;;5026718;28;20552;-81
2023/07/18 05:01:40;;;;;;;18.38;12.73;;;14.50;99.90;;;;;;5031171;28;20136;-81
2023/07/18 05:04:05;;;;;;;15.57;11.30;;;14.50;99.90;;;;;;5014141;28;20063;-81
2023/07/18 05:06:31;;;;;;;20.08;12.63;;;14.70;99.90;;;;;;5031231;28;20045;-80
2023/07/18 05:08:57;;;;;;;18.50;11.75;;;14.60;99.90;;;;;;5030096;28;20475;-80
2023/07/18 05:11:22;;;;;;;16.73;12.45;;;14.70;99.90;;;;;;5030696;28;20038;-80
2023/07/18 05:13:48;;;;;;;20.80;13.65;;;14.70;99.90;;;;;;5019670;28;20069;-80
2023/07/18 05:16:14;;;;;;;20.92;12.85;;;14.80;99.90;;;;;;5010682;28;20045;-80
2023/07/18 05:18:39;;;;;;;21.02;12.60;;;14.80;99.90;;;;;;4994254;28;20049;-80
2023/07/18 05:21:05;;;;;;;17.98;11.68;;;14.90;99.90;;;;;;5012087;28;20038;-80
2023/07/18 05:23:30;;;;;;;18.40;10.07;;;15.10;99.90;;;;;;5011619;28;20180;-80
2023/07/18 05:25:57;;;;;;;18.20;10.93;;;15.50;99.90;;;;;;5017156;28;20661;-80
2023/07/18 05:28:23;;;;;;;17.70;9.50;;;16.40;99.90;;;;;;5030406;28;20233;-80
2023/07/18 05:30:49;;;;;;;16.67;5.93;;;17.20;99.90;;;;;;5030646;28;20132;-81
2023/07/18 05:33:14;;;;;;;12.77;6.45;;;18.20;99.90;;;;;;5014080;28;20045;-80
2023/07/18 05:35:40;;;;;;;12.63;6.70;;;18.60;99.90;;;;;;5013659;28;20033;-80
2023/07/18 05:38:07;;;;;;;16.10;6.10;;;19.00;99.90;;;;;;5029797;28;20450;-81
2023/07/18 05:40:32;;;;;;;12.00;6.20;;;19.90;99.90;;;;;;5008840;28;20266;-81
2023/07/18 05:42:58;;;;;;;15.35;5.93;;;20.80;99.90;;;;;;5011700;28;20057;-80
2023/07/18 05:45:23;;;;;;;11.68;6.45;;;21.10;99.90;;;;;;5020626;28;20106;-81
2023/07/18 05:47:49;;;;;;;9.82;5.72;;;21.40;99.90;;;;;;5030320;28;20136;-81
2023/07/18 05:50:15;;;;;;;13.68;5.82;;;21.50;99.90;;;;;;5029772;28;20041;-80
2023/07/18 05:52:40;;;;;;;11.02;5.30;;;21.20;99.90;;;;;;5029428;28;20076;-80
2023/07/18 05:55:07;;;;;;;13.93;5.82;;;20.90;99.90;;;;;;5013306;28;20479;-80
2023/07/18 05:57:33;;;;;;;10.57;5.05;;;20.50;99.90;;;;;;5030115;28;20048;-80
2023/07/18 05:59:58;;;;;;;16.63;4.82;;;20.20;99.90;;;;;;5029707;28;20038;-80
2023/07/18 06:02:24;;;;;;;13.68;6.05;;;19.90;99.90;;;;;;5013443;28;20565;-80
2023/07/18 06:04:50;;;;;;;14.20;5.40;;;19.60;99.90;;;;;;5012732;28;20082;-79
2023/07/18 06:07:16;;;;;;;10.80;6.05;;;19.30;99.90;;;;;;5013260;28;20154;-80
2023/07/18 06:09:42;;;;;;;14.00;5.18;;;19.10;99.90;;;;;;5029752;28;20144;-80
2023/07/18 06:12:08;;;;;;;10.85;5.30;;;19.20;99.90;;;;;;5029089;28;20120;-80
2023/07/18 06:14:34;;;;;;;11.10;5.18;;;19.60;99.90;;;;;;5013318;28;20042;-80
2023/07/18 06:17:00;;;;;;;9.98;4.95;;;20.00;99.90;;;;;;5009581;28;20037;-80
2023/07/18 06:19:25;;;;;;;9.20;5.18;;;20.60;99.90;;;;;;5009066;28;20075;-80
2023/07/18 06:21:51;;;;;;;15.65;5.28;;;21.70;99.90;;;;;;4993623;28;20049;-80
2023/07/18 06:24:17;;;;;;;10.48;5.90;;;22.70;99.90;;;;;;5011034;28;20546;-80
2023/07/18 06:26:48;;;;;;;11.70;5.20;;;23.40;99.90;;;;;;5009669;28;20038;-80
2023/07/18 06:29:18;;;;;;;13.10;5.15;;;24.00;99.90;;;;;;5009911;28;20458;-80
2023/07/18 06:31:48;;;;;;;14.55;5.78;;;23.80;99.90;;;;;;4993091;28;20164;-80
2023/07/18 06:34:17;;;;;;;11.65;4.75;;;23.40;99.90;;;;;;5009073;28;20503;-81
2023/07/18 06:36:44;;;;;;;11.57;4.85;;;23.00;99.90;;;;;;5009559;28;20088;-80
2023/07/18 06:39:10;;;;;;;13.02;6.03;;;22.60;99.90;;;;;;5010825;28;20064;-80
2023/07/18 06:41:36;;;;;;;13.32;5.93;;;22.80;99.90;;;;;;5010933;28;20054;-80
2023/07/18 06:44:04;;;;;;;12.73;6.70;;;23.70;99.90;;;;;;5027490;28;20038;-81
2023/07/18 06:46:30;;;;;;;13.60;5.38;;;25.40;99.90;;;;;;5029099;28;20045;-80
2023/07/18 06:48:55;;;;;;;13.68;4.80;;;25.50;99.90;;;;;;5028746;28;20511;-80
2023/07/18 06:51:22;;;;;;;14.40;7.38;;;25.30;99.90;;;;;;5028858;28;20049;-80
2023/07/18 06:53:48;;;;;;;10.80;4.95;;;24.60;99.90;;;;;;5030551;28;20041;-80
2023/07/18 06:56:14;;;;;;;12.95;5.18;;;24.10;99.90;;;;;;5030359;28;20044;-80
2023/07/18 06:58:40;;;;;;;14.77;6.93;;;23.50;99.90;;;;;;5029688;28;20431;-80
2023/07/18 07:01:05;;;;;;;16.05;7.32;;;22.90;99.90;;;;;;5028916;28;20483;-80
2023/07/18 07:03:32;;;;;;;20.73;6.68;;;22.50;99.90;;;;;;5011688;28;20073;-80
2023/07/18 07:05:57;;;;;;;21.73;6.57;;;22.30;99.90;;;;;;5030035;28;20076;-80
2023/07/18 07:08:24;;;;;;;17.40;8.25;;;22.30;99.90;;;;;;5028536;28;20427;-80
2023/07/18 07:10:52;;;;;;;21.88;6.70;;;22.30;99.90;;;;;;5028593;28;20044;-80
2023/07/18 07:13:18;;;;;;;14.80;5.68;;;22.90;99.90;;;;;;5014327;28;20492;-80
2023/07/18 07:15:44;;;;;;;13.25;5.78;;;23.20;99.90;;;;;;5009895;28;20038;-80
2023/07/18 07:18:10;;;;;;;16.02;5.20;;;23.20;99.90;;;;;;5008025;28;20053;-80
2023/07/18 07:20:35;;;;;;;12.77;8.07;;;24.00;99.90;;;;;;5008888;28;20108;-80
2023/07/18 07:23:01;;;;;;;18.88;16.95;;;25.10;99.90;;;;;;4992102;28;20483;-81
2023/07/18 07:25:29;;;;;;;25.20;22.13;;;25.60;99.90;;;;;;5008441;28;20399;-81
2023/07/18 07:27:55;;;;;;;64.00;59.63;;;25.70;99.90;;;;;;4992044;28;20496;-81
2023/07/18 07:30:21;;;;;;;72.13;67.43;;;26.20;99.90;;;;;;5008264;28;20053;-81
2023/07/18 07:32:50;;;;;;;157.70;148.23;;;26.80;99.90;;;;;;5009291;28;20054;-81
2023/07/18 07:35:19;;;;;;;165.32;154.43;;;27.10;99.90;;;;;;5009728;28;20053;-81
2023/07/18 07:37:54;;;;;;;108.97;102.45;;;27.30;99.70;;;;;;5008450;28;20044;-81
2023/07/18 07:40:21;;;;;;;150.20;140.95;;;28.10;99.20;;;;;;5008427;28;20060;-81
2023/07/18 07:42:47;;;;;;;250.38;233.82;;;28.60;98.00;;;;;;5024520;28;20041;-81
2023/07/18 07:45:14;;;;;;;494.90;458.13;;;29.20;98.60;;;;;;5028344;28;20095;-81
2023/07/18 07:47:40;;;;;;;626.78;577.83;;;29.60;97.80;;;;;;5027531;28;20107;-81
2023/07/18 07:50:07;;;;;;;972.53;877.60;;;30.00;97.80;;;;;;5027636;28;20041;-81
2023/07/18 07:52:33;;;;;;;1153.55;975.97;;;29.90;97.40;;;;;;5027778;28;20079;-81
2023/07/18 07:54:59;;;;;;;1346.72;999.90;;;30.30;96.80;;;;;;5027959;28;20069;-81
2023/07/18 07:57:24;;;;;;;1460.85;999.90;;;30.70;96.50;;;;;;5011194;28;20037;-81
2023/07/18 07:59:51;;;;;;;1514.07;999.90;;;30.70;95.90;;;;;;5027682;28;20029;-81
2023/07/18 08:02:19;;;;;;;1714.05;999.90;;;30.70;95.70;;;;;;5027123;28;20044;-81
2023/07/18 08:04:46;;;;;;;1728.72;999.90;;;30.40;95.70;;;;;;5027565;28;20037;-81
2023/07/18 08:07:13;;;;;;;1865.38;999.90;;;30.20;96.00;;;;;;5029173;28;20179;-81
2023/07/18 08:09:39;;;;;;;1902.35;999.90;;;30.10;95.90;;;;;;5027595;28;20041;-81
2023/07/18 08:12:06;;;;;;;1828.15;999.90;;;29.60;95.90;;;;;;5015183;28;20392;-81
2023/07/18 08:14:33;;;;;;;1807.88;999.90;;;28.70;96.10;;;;;;5009119;28;20045;-81
2023/07/18 08:16:59;;;;;;;1634.32;999.90;;;28.30;96.60;;;;;;4990757;28;20129;-81
2023/07/18 08:19:24;;;;;;;1527.60;999.90;;;28.20;97.20;;;;;;5007939;28;20540;-81
2023/07/18 08:21:50;;;;;;;1570.53;999.90;;;28.00;97.40;;;;;;5007878;28;20046;-81
2023/07/18 08:24:17;;;;;;;1510.55;999.90;;;28.50;97.40;;;;;;5007724;28;20046;-81
2023/07/18 08:26:42;;;;;;;1476.85;999.90;;;28.80;96.90;;;;;;5008962;28;20045;-81
2023/07/18 08:29:08;;;;;;;1502.18;999.90;;;28.80;96.80;;;;;;5007705;28;20034;-81
2023/07/18 08:31:34;;;;;;;1374.03;999.90;;;28.30;96.40;;;;;;5007382;28;20042;-81
2023/07/18 08:33:59;;;;;;;1320.93;999.90;;;27.40;96.30;;;;;;5007219;28;20034;-81
2023/07/18 08:36:25;;;;;;;1320.40;999.90;;;27.50;97.20;;;;;;5007699;28;20038;-81
2023/07/18 08:38:51;;;;;;;1353.55;999.90;;;27.90;96.50;;;;;;5008720;28;20038;-81
2023/07/18 08:41:21;;;;;;;1286.35;999.90;;;27.40;96.30;;;;;;5002235;28;20049;-81
2023/07/18 08:43:47;;;;;;;1094.97;968.15;;;27.10;96.90;;;;;;5010677;28;20492;-81
2023/07/18 08:46:14;;;;;;;1132.25;972.22;;;27.40;97.40;;;;;;5010227;28;20045;-81
2023/07/18 08:48:44;;;;;;;1103.68;972.00;;;27.70;97.60;;;;;;5028671;28;20187;-81
2023/07/18 08:51:11;;;;;;;1143.35;986.25;;;28.10;97.10;;;;;;5028344;28;20116;-81
2023/07/18 08:53:38;;;;;;;1182.72;999.33;;;28.50;97.30;;;;;;5027040;28;20053;-81
2023/07/18 08:56:04;;;;;;;1284.82;999.90;;;28.40;96.60;;;;;;5027435;28;20396;-81
2023/07/18 08:58:30;;;;;;;1220.50;999.90;;;28.30;96.50;;;;;;5028453;28;20041;-81
2023/07/18 09:00:56;;;;;;;1263.28;999.90;;;28.50;95.70;;;;;;5010423;28;20049;-81
2023/07/18 09:03:21;;;;;;;1266.45;999.90;;;28.60;96.60;;;;;;5027081;28;20567;-81
2023/07/18 09:05:47;;;;;;;1341.30;999.90;;;28.80;96.60;;;;;;5026819;28;20041;-81
2023/07/18 09:08:13;;;;;;;1330.97;999.90;;;28.80;96.00;;;;;;5010412;28;20041;-82
2023/07/18 09:10:39;;;;;;;1319.15;999.90;;;28.60;95.90;;;;;;5016538;28;20078;-82
2023/07/18 09:13:07;;;;;;;1257.90;999.90;;;28.20;96.20;;;;;;5007523;28;20033;-81
2023/07/18 09:15:35;;;;;;;1313.63;999.90;;;27.70;95.60;;;;;;5006666;28;20114;-81
2023/07/18 09:18:06;;;;;;;1177.28;987.83;;;27.40;96.20;;;;;;4990432;28;20045;-81
2023/07/18 09:20:32;;;;;;;1236.15;999.90;;;27.20;96.00;;;;;;5007063;28;20062;-81
2023/07/18 09:22:59;;;;;;;1136.78;981.75;;;27.00;96.40;;;;;;5006767;28;20496;-80
2023/07/18 09:25:26;;;;;;;1076.00;957.88;;;27.00;97.10;;;;;;5008350;28;20459;-81
2023/07/18 09:27:53;;;;;;;1059.18;946.17;;;27.10;96.80;;;;;;4990171;28;20056;-81
2023/07/18 09:30:26;;;;;;;990.72;889.55;;;26.80;96.90;;;;;;4990661;28;20038;-80
2023/07/18 09:32:53;;;;;;;804.53;733.83;;;26.70;97.40;;;;;;5008131;28;20049;-81
2023/07/18 09:35:19;;;;;;;854.40;776.25;;;26.20;97.10;;;;;;5007974;28;20069;-81
2023/07/18 09:37:46;;;;;;;827.17;753.45;;;26.30;97.80;;;;;;4990729;28;20073;-81
2023/07/18 09:40:18;;;;;;;730.38;667.42;;;26.30;97.50;;;;;;5000878;28;20041;-81
2023/07/18 09:42:46;;;;;;;752.80;690.57;;;26.50;97.70;;;;;;5027254;28;20091;-81
2023/07/18 09:45:13;;;;;;;809.60;738.30;;;26.90;97.50;;;;;;5026436;28;20041;-81
2023/07/18 09:47:41;;;;;;;758.85;694.03;;;27.20;97.20;;;;;;5031200;28;20515;-81
2023/07/18 09:50:08;;;;;;;723.65;662.83;;;27.10;97.20;;;;;;5030014;28;20041;-81
2023/07/18 09:52:39;;;;;;;716.38;657.58;;;26.90;97.10;;;;;;5030032;28;20095;-81
2023/07/18 09:55:06;;;;;;;858.08;783.95;;;27.00;97.50;;;;;;5018272;28;20446;-81
2023/07/18 09:57:39;;;;;;;779.70;712.45;;;27.00;97.10;;;;;;5009766;28;20042;-81
2023/07/18 10:00:05;;;;;;;690.33;632.67;;;26.80;97.20;;;;;;5011346;28;20042;-81
2023/07/18 10:02:34;;;;;;;789.72;723.75;;;26.90;97.30;;;;;;5009710;28;20042;-81
2023/07/18 10:05:02;;;;;;;925.58;842.38;;;27.10;97.20;;;;;;4993621;28;20038;-81
2023/07/18 10:07:34;;;;;;;924.65;842.33;;;27.30;97.20;;;;;;5010204;28;20470;-81
2023/07/18 10:10:01;;;;;;;975.10;884.20;;;27.40;96.80;;;;;;5022322;28;20107;-81
2023/07/18 10:12:27;;;;;;;966.80;877.92;;;27.70;96.60;;;;;;5029203;28;20091;-81
2023/07/18 10:15:00;;;;;;;975.47;884.75;;;27.60;96.20;;;;;;5029987;28;20037;-81
2023/07/18 10:17:32;;;;;;;;;;;27.60;96.50;;;;;;5013799;28;20050;-81
2023/07/18 10:19:58;;;;;;;997.13;901.35;;;27.80;96.40;;;;;;5030829;28;20372;-81
2023/07/18 10:22:28;;;;;;;975.03;885.60;;;28.00;96.60;;;;;;5029750;28;20044;-81
2023/07/18 10:24:59;;;;;;;1001.60;904.45;;;27.30;95.70;;;;;;5029404;28;20099;-81
2023/07/18 10:27:38;;;;;;;997.03;902.10;;;27.40;96.10;;;;;;5029142;28;20037;-81
2023/07/18 10:30:05;;;;;;;952.22;866.50;;;27.40;95.80;;;;;;5029246;28;20045;-81
2023/07/18 10:32:32;;;;;;;946.05;861.15;;;27.10;95.80;;;;;;5029188;28;20100;-81
2023/07/18 10:34:59;;;;;;;911.75;833.97;;;27.20;96.10;;;;;;5029547;28;20033;-81
2023/07/18 10:37:27;;;;;;;942.08;859.70;;;27.50;96.00;;;;;;5029179;28;20041;-81
2023/07/18 10:39:54;;;;;;;924.13;845.13;;;28.00;95.70;;;;;;5000718;28;20104;-81
2023/07/18 10:42:26;;;;;;;950.13;864.78;;;28.30;94.40;;;;;;5008946;28;20257;-81
2023/07/18 10:44:56;;;;;;;969.00;880.88;;;28.30;94.10;;;;;;5009243;28;20115;-81
2023/07/18 10:47:22;;;;;;;945.90;863.03;;;28.10;94.10;;;;;;5009254;28;20042;-81
2023/07/18 10:49:48;;;;;;;985.13;892.05;;;27.90;94.50;;;;;;5009117;28;20450;-81
2023/07/18 10:52:15;;;;;;;956.80;871.60;;;27.90;95.10;;;;;;5008944;28;20523;-81
2023/07/18 10:55:00;;;;;;;1002.47;908.00;;;28.30;95.20;;;;;;5009059;28;20052;-81
2023/07/18 10:57:32;;;;;;;982.67;891.47;;;28.50;94.40;;;;;;5017457;28;20068;-81
2023/07/18 11:00:02;;;;;;;996.58;902.05;;;28.70;94.90;;;;;;5028778;28;20043;-81
2023/07/18 11:02:38;;;;;;;1018.45;919.60;;;28.80;94.70;;;;;;5028728;28;20092;-81
2023/07/18 11:05:12;;;;;;;1026.80;925.97;;;29.00;94.60;;;;;;5012637;28;20489;-81
2023/07/18 11:07:47;;;;;;;1075.53;959.75;;;29.00;94.80;;;;;;5028726;28;20038;-81
2023/07/18 11:10:14;;;;;;;1077.07;961.65;;;29.00;93.60;;;;;;5028085;28;20041;-81
2023/07/18 11:12:40;;;;;;;1146.28;988.80;;;29.20;94.60;;;;;;5029918;28;20167;-81
2023/07/18 11:15:08;;;;;;;1096.43;974.33;;;29.30;94.20;;;;;;5028521;28;20045;-81
2023/07/18 11:17:34;;;;;;;1071.32;961.72;;;29.20;93.40;;;;;;5029257;28;20495;-81
2023/07/18 11:20:01;;;;;;;1054.03;943.95;;;29.20;93.40;;;;;;5011718;28;20060;-81
2023/07/18 11:22:28;;;;;;;1076.85;961.10;;;29.10;93.30;;;;;;5028423;28;20395;-81
2023/07/18 11:24:55;;;;;;;1068.78;954.50;;;29.10;93.20;;;;;;5011276;28;20055;-81
2023/07/18 11:27:29;;;;;;;1092.25;973.60;;;29.10;93.60;;;;;;5015685;28;20045;-81
2023/07/18 11:29:57;;;;;;;1089.97;971.33;;;29.00;93.40;;;;;;4991878;28;20096;-81
2023/07/18 11:32:49;;;;;;;1087.78;971.10;;;28.70;93.40;;;;;;5008415;28;20038;-81
2023/07/18 11:35:21;;;;;;;1084.13;968.85;;;28.90;93.90;;;;;;4990021;28;20108;-81
2023/07/18 11:37:51;;;;;;;1134.40;985.13;;;28.60;93.70;;;;;;5008241;28;20033;-81
2023/07/18 11:40:26;;;;;;;1059.40;950.78;;;28.30;93.00;;;;;;5007953;28;20068;-81
2023/07/18 11:42:53;;;;;;;1040.47;937.05;;;28.10;93.30;;;;;;5009645;28;20457;-81
2023/07/18 11:45:21;;;;;;;1032.45;931.13;;;27.70;93.50;;;;;;5009386;28;20096;-81
2023/07/18 11:47:51;;;;;;;1045.40;938.55;;;27.30;94.00;;;;;;5009550;28;20038;-81
2023/07/18 11:50:18;;;;;;;964.58;877.33;;;27.00;94.50;;;;;;5008216;28;20038;-81
2023/07/18 11:52:49;;;;;;;982.47;888.97;;;26.60;94.00;;;;;;5008006;28;20060;-81
2023/07/18 11:55:16;;;;;;;936.97;853.47;;;26.10;94.30;;;;;;5007992;28;20048;-80
2023/07/18 11:57:42;;;;;;;844.75;775.33;;;25.80;94.70;;;;;;5026973;28;20064;-81
2023/07/18 12:00:10;;;;;;;793.50;730.35;;;25.50;95.00;;;;;;5028871;28;20073;-80
2023/07/18 12:02:36;;;;;;;666.20;614.80;;;25.30;95.10;;;;;;5027805;28;20492;-81
2023/07/18 12:05:05;;;;;;;436.00;404.33;;;25.20;95.40;;;;;;5027635;28;20033;-81
2023/07/18 12:07:32;;;;;;;195.07;181.40;;;24.90;95.50;;;;;;5026971;28;20091;-81
2023/07/18 12:09:57;;;;;;;133.65;125.15;;;24.70;96.10;;;;;;5026970;28;20396;-81
2023/07/18 12:12:23;;;;;;;61.70;57.35;;;24.50;96.90;;;;;;5010925;28;20042;-80
2023/07/18 12:14:50;;;;;;;38.30;35.67;;;24.30;96.80;;;;;;5027279;28;20112;-81
2023/07/18 12:17:16;;;;;;;49.13;45.92;;;24.30;96.90;;;;;;5027145;28;20141;-81
2023/07/18 12:19:42;;;;;;;36.75;34.10;;;24.40;97.10;;;;;;5027413;28;20049;-80